Latest Coastal Weather Observations for Aireys Inlet

IDV60701

Issued at 5:21 am EST Monday 2 May 2016 (issued every 10 minutes, with the page automatically refreshed every 10 minutes)

About coastal observations | Map of coastal stations | Coastal observations for VIC | Marine services | Other Formats
Station Details ID: 090180 Name: AIREYS INLET Lat: -38.46 Lon: 144.09 Height: 95.0 m
Data from the previous 72 hours. | See also: Recent months at Aireys Inlet
Date/Time
EST
Temp

°C
Wind Pressure Rain
since 9am
mm
Weather Cloud Vis
km
Sea
Height
m
Swell
Dir
 
Speed
knots
Gust
knots
hPa Trend Height
m
Period
s
Dir
02/05:00am 8.9 NW 20 26 - - 3.0 - - - - - - -
02/04:30am 9.0 NNW 8 18 - - 3.0 - - - - - - -
02/04:00am 9.0 NE 5 11 - - 3.0 - - - - - - -
02/03:30am 9.1 NNW 4 13 - - 2.8 - - - - - - -
02/03:00am 8.4 E 5 10 - - 2.8 - - - - - - -
02/02:30am 8.3 ENE 6 12 - - 2.8 - - - - - - -
02/02:00am 8.4 E 6 10 - - 2.8 - - - - - - -
02/01:30am 8.3 ENE 4 10 - - 2.8 - - - - - - -
02/01:00am 8.3 NW 3 7 - - 2.8 - - - - - - -
02/12:30am 8.5 NW 6 11 - - 2.8 - - - - - - -
02/12:00am 8.4 NW 7 12 - - 2.6 - - - - - - -
 
Date/Time
EST
Temp

°C
Wind Pressure Rain
since 9am
mm
Weather Cloud Vis
km
Sea
Height
m
Swell
Dir
 
Speed
knots
Gust
knots
hPa Trend Height
m
Period
s
Dir
01/11:30pm 8.4 NW 7 10 - - 2.6 - - - - - - -
01/11:00pm 8.9 NW 14 21 - - 2.6 - - - - - - -
01/10:30pm 9.0 NW 13 19 - - 2.6 - - - - - - -
01/10:00pm 9.1 NW 9 14 - - 2.6 - - - - - - -
01/09:30pm 9.4 NW 9 14 - - 2.6 - - - - - - -
01/09:00pm 9.9 NW 7 11 - - 2.4 - - - - - - -
01/08:30pm 10.1 WNW 10 13 - - 2.4 - - - - - - -
01/08:00pm 10.0 WNW 7 11 - - 2.4 - - - - - - -
01/07:30pm 10.1 WNW 10 14 - - 2.4 - - - - - - -
01/07:00pm 10.4 WNW 11 16 - - 2.2 - - - - - - -
01/06:30pm 10.4 WNW 8 12 - - 2.2 - - - - - - -
01/06:00pm 10.7 WNW 7 11 - - 2.2 Recent precip. - - - - - -
01/05:30pm 11.2 W 9 13 - - 2.2 - - - - - - -
01/05:00pm 12.0 W 11 15 - - 2.0 - - - - - - -
01/04:30pm 12.4 WSW 14 21 - - 2.0 - - - - - - -
01/04:00pm 12.4 W 14 23 - - 1.8 - - - - - - -
01/03:52pm 12.3 W 15 25 - - 1.8 - - - - - - -
01/03:30pm 12.2 W 9 13 - - 1.8 - - - - - - -
01/03:00pm 12.1 WNW 10 17 - - 1.6 Recent precip. - - - - - -
01/02:30pm 11.5 W 11 18 - - 1.4 - - - - - - -
01/02:00pm 11.0 WSW 12 22 - - 1.4 - - - - - - -
01/01:30pm 11.8 SW 10 14 - - 1.2 - - - - - - -
01/01:00pm 11.4 W 11 22 - - 1.0 - - - - - - -
01/12:30pm 11.0 WNW 14 21 - - 0.8 - - - - - - -
01/12:00pm 10.4 WNW 16 26 - - 0.6 Recent precip. - - - - - -
01/11:30am 10.6 WNW 15 25 - - 0.6 - - - - - - -
01/11:26am 10.7 WNW 15 25 - - 0.4 - - - - - - -
01/11:00am 10.3 WNW 13 21 - - 0.4 - - - - - - -
01/10:30am 10.4 WNW 19 34 - - 0.2 - - - - - - -
01/10:00am 12.3 WNW 16 31 - - 0.0 - - - - - - -
01/09:57am 12.4 WNW 16 31 - - 0.0 - - - - - - -
01/09:30am 12.1 WNW 14 23 - - 0.0 - - - - - - -
01/09:00am 11.6 WNW 20 33 - - 11.0 - - - - - - -
01/08:30am 11.6 NW 19 30 - - 11.0 - - - - - - -
01/08:00am 11.4 NW 17 30 - - 11.0 - - - - - - -
01/07:30am 11.6 NW 21 33 - - 11.0 - - - - - - -
01/07:00am 12.9 NW 23 39 - - 11.0 - - - - - - -
01/06:30am 13.1 NW 21 36 - - 11.0 - - - - - - -
01/06:00am 13.7 NW 20 34 - - 11.0 - - - - - - -
01/05:38am 14.1 NW 19 30 - - 11.0 - - - - - - -
01/05:30am 14.5 NW 20 30 - - 11.0 - - - - - - -
01/05:00am 15.2 NW 21 35 - - 11.0 - - - - - - -
01/04:45am 14.8 NW 15 25 - - 10.8 - - - - - - -
01/04:30am 14.6 NNW 13 24 - - 10.0 - - - - - - -
01/04:00am 14.5 NNW 7 11 - - 6.6 - - - - - - -
01/03:30am 14.7 NNW 11 18 - - 2.2 - - - - - - -
01/03:08am 14.6 NW 15 27 - - 1.6 - - - - - - -
01/03:00am 14.6 NW 13 19 - - 1.4 Rain - - - - - -
01/02:30am 14.7 WNW 15 25 - - 1.2 - - - - - - -
01/02:00am 14.7 N 17 28 - - 1.0 - - - - - - -
01/01:39am 15.6 N 15 28 - - 0.8 - - - - - - -
01/01:30am 16.0 N 20 35 - - 0.8 - - - - - - -
01/01:17am 17.6 NNW 17 40 - - 0.6 - - - - - - -
01/01:15am 17.7 NNW 16 26 - - 0.4 - - - - - - -
01/01:00am 18.7 N 18 27 - - 0.2 - - - - - - -
01/12:50am 19.8 N 17 27 - - 0.0 - - - - - - -
01/12:30am 18.4 NNE 11 19 - - 0.0 - - - - - - -
01/12:00am 18.4 NNE 10 16 - - 0.0 - - - - - - -
 
Date/Time
EST
Temp

°C
Wind Pressure Rain
since 9am
mm
Weather Cloud Vis
km
Sea
Height
m
Swell
Dir
 
Speed
knots
Gust
knots
hPa Trend Height
m
Period
s
Dir
30/11:30pm 18.8 N 13 18 - - 0.0 - - - - - - -
30/11:00pm 18.1 NNE 11 19 - - 0.0 - - - - - - -
30/10:30pm 17.1 NNE 10 15 - - 0.0 - - - - - - -
30/10:00pm 18.3 NNE 12 17 - - 0.0 - - - - - - -
30/09:30pm 18.3 N 11 16 - - 0.0 - - - - - - -
30/09:00pm 18.7 N 11 16 - - 0.0 - - - - - - -
30/08:30pm 19.0 N 11 19 - - 0.0 - - - - - - -
30/08:00pm 19.2 N 12 19 - - 0.0 - - - - - - -
30/07:30pm 19.5 N 14 22 - - 0.0 - - - - - - -
30/07:00pm 19.6 N 13 18 - - 0.0 - - - - - - -
30/06:30pm 20.1 NNE 11 16 - - 0.0 - - - - - - -
30/06:00pm 20.6 N 11 18 - - 0.0 - - - - - - -
30/05:30pm 21.0 N 11 18 - - 0.0 - - - - - - -
30/05:00pm 21.8 N 11 16 - - 0.0 - - - - - - -
30/04:30pm 22.4 N 9 15 - - 0.0 - - - - - - -
30/04:00pm 23.1 NNW 12 24 - - 0.0 - - - - - - -
30/03:30pm 24.0 NNW 11 20 - - 0.0 - - - - - - -
30/03:00pm 23.8 NNW 12 20 - - 0.0 - - - - - - -
30/02:43pm 24.2 NNW 16 27 - - 0.0 - - - - - - -
30/02:30pm 24.6 NW 11 18 - - 0.0 - - - - - - -
30/02:00pm 22.7 NNW 13 20 - - 0.0 - - - - - - -
30/01:30pm 22.4 N 11 20 - - 0.0 - - - - - - -
30/01:11pm 22.3 N 15 27 - - 0.0 - - - - - - -
30/01:00pm 21.8 N 13 23 - - 0.0 - - - - - - -
30/12:30pm 22.9 N 15 25 - - 0.0 - - - - - - -
30/12:06pm 22.5 NNW 15 29 - - 0.0 - - - - - - -
30/12:00pm 22.4 NNW 10 18 - - 0.0 - - - - - - -
30/11:35am 21.6 N 15 29 - - 0.0 - - - - - - -
30/11:30am 22.0 N 15 23 - - 0.0 - - - - - - -
30/11:14am 21.6 N 15 28 - - 0.0 - - - - - - -
30/11:00am 21.6 N 13 22 - - 0.0 - - - - - - -
30/10:30am 19.5 N 12 20 - - 0.0 - - - - - - -
30/10:00am 19.3 N 9 16 - - 0.0 - - - - - - -
30/09:30am 18.1 N 9 17 - - 0.0 - - - - - - -
30/09:00am 16.6 N 9 15 - - 3.6 - - - - - - -
30/08:30am 16.7 N 11 18 - - 3.6 - - - - - - -
30/08:00am 15.8 NNW 7 11 - - 3.6 - - - - - - -
30/07:30am 14.7 NNW 6 10 - - 3.6 - - - - - - -
30/07:00am 14.6 N 7 12 - - 3.6 - - - - - - -
30/06:30am 14.7 N 8 11 - - 3.6 - - - - - - -
30/06:00am 14.4 N 6 8 - - 3.6 - - - - - - -
30/05:30am 14.4 NNW 6 9 - - 3.6 - - - - - - -
30/05:00am 14.6 NNW 7 9 - - 3.6 - - - - - - -
30/04:30am 14.8 N 7 12 - - 3.6 - - - - - - -
30/04:00am 14.9 NNW 9 13 - - 3.6 - - - - - - -
30/03:30am 14.9 NNW 8 11 - - 3.6 - - - - - - -
30/03:00am 14.6 NNW 7 11 - - 3.6 - - - - - - -
30/02:30am 14.7 NNW 8 11 - - 3.6 - - - - - - -
30/02:00am 15.0 NNW 8 13 - - 3.6 - - - - - - -
30/01:30am 15.3 NNW 8 11 - - 3.6 - - - - - - -
30/01:00am 15.4 NW 7 9 - - 3.6 - - - - - - -
30/12:30am 15.8 NW 7 10 - - 3.6 - - - - - - -
30/12:00am 15.9 NW 8 11 - - 3.6 - - - - - - -
 
Date/Time
EST
Temp

°C
Wind Pressure Rain
since 9am
mm
Weather Cloud Vis
km
Sea
Height
m
Swell
Dir
 
Speed
knots
Gust
knots
hPa Trend Height
m
Period
s
Dir
29/11:30pm 16.1 NW 6 9 - - 3.6 - - - - - - -
29/11:00pm 16.3 NW 7 10 - - 3.6 - - - - - - -
29/10:30pm 16.4 NW 7 10 - - 3.6 - - - - - - -
29/10:00pm 16.3 NW 8 12 - - 3.6 - - - - - - -
29/09:30pm 16.3 NNW 7 13 - - 3.6 - - - - - - -
29/09:00pm 16.3 NNW 6 10 - - 3.6 - - - - - - -
29/08:30pm 16.6 NW 7 10 - - 3.6 - - - - - - -
29/08:00pm 16.9 NW 7 12 - - 3.6 - - - - - - -
29/07:30pm 17.0 NW 8 10 - - 3.6 - - - - - - -
29/07:00pm 16.8 NNW 4 6 - - 3.6 - - - - - - -
29/06:30pm 17.1 NW 5 7 - - 3.6 - - - - - - -
29/06:00pm 17.3 NNW 8 11 - - 3.6 - - - - - - -
29/05:30pm 17.1 N 5 9 - - 3.6 - - - - - - -
29/05:00pm 17.2 N 6 9 - - 3.6 - - - - - - -
29/04:30pm 17.6 N 5 9 - - 3.6 - - - - - - -
29/04:00pm 18.0 NNE 6 10 - - 3.6 - - - - - - -
29/03:30pm 17.4 NNE 7 11 - - 3.6 - - - - - - -
29/03:00pm 16.9 N 7 12 - - 3.6 - - - - - - -
29/02:30pm 16.4 N 9 14 - - 3.6 - - - - - - -
29/02:00pm 16.2 N 9 16 - - 3.6 - - - - - - -
29/01:30pm 16.5 N 9 14 - - 3.0 - - - - - - -
29/01:00pm 16.2 N 9 15 - - 3.0 - - - - - - -
29/12:30pm 15.9 N 9 14 - - 3.0 - - - - - - -
29/12:00pm 15.9 N 9 13 - - 2.6 Rain - - - - - -
29/11:30am 15.8 NNE 11 17 - - 1.8 - - - - - - -
29/11:00am 16.4 N 11 14 - - 0.6 - - - - - - -
29/10:30am 17.9 N 7 12 - - 0.0 - - - - - - -
29/10:00am 18.4 N 4 5 - - 0.0 - - - - - - -
29/09:30am 18.1 N 6 9 - - 0.0 - - - - - - -
29/09:00am 18.0 N 6 8 - - 2.0 - - - - - - -
29/08:30am 18.2 N 4 7 - - - - - - - - - -
29/08:00am 18.7 N 12 19 - - - - - - - - - -
29/07:30am 17.8 NNW 10 16 - - - - - - - - - -
29/07:00am 17.6 NNW 18 26 - - - - - - - - - -
29/06:49am 17.2 N 14 23 - - - - - - - - - -
29/06:30am 15.6 NNW 5 7 - - - - - - - - - -
29/06:00am 18.5 WNW 8 11 - - - - - - - - - -
29/05:30am 15.8 N 5 6 - - - - - - - - - -

Other Formats:

Comma delimited format used in spreadsheet applications
http://www.bom.gov.au/fwo/IDV60701/IDV60701.94846.axf

JavaScript Object Notation format (JSON) in row-major order
http://www.bom.gov.au/fwo/IDV60701/IDV60701.94846.json